<?xml version="1.0" encoding="UTF-8" standalone="no" ?>
<gpx xmlns="http://www.topografix.com/GPX/1/1" xmlns:xsi="http://www.w3.org/2001/XMLSchema-instance" xsi:schemaLocation="http://www.topografix.com/GPX/1/1 http://www.topografix.com/GPX/1/1/gpx.xsd" version="1.1" creator="VisuGPX - https://www.visugpx.com">
  <metadata>
    <name>Rando LN</name>
  </metadata>
  <trk>
    <name><![CDATA[AUJAC]]></name>
    <extensions>
      <line xmlns="http://www.topografix.com/GPX/gpx_style/0/2">
        <color>00ffee</color>
        <width>4</width>
      </line>
    </extensions>
    <trkseg>
      <trkpt lat="44.35118" lon="4.01756">
        <ele>520.408</ele>
        <time>2017-01-24T19:56:23Z</time>
      </trkpt>
      <trkpt lat="44.35118" lon="4.01756">
        <ele>520.496</ele>
        <time>2017-01-24T19:56:43Z</time>
      </trkpt>
      <trkpt lat="44.35104" lon="4.01769">
        <ele>521.927</ele>
        <time>2017-01-24T19:57:03Z</time>
      </trkpt>
      <trkpt lat="44.35106" lon="4.01694">
        <ele>525.034</ele>
        <time>2017-01-24T19:57:23Z</time>
      </trkpt>
      <trkpt lat="44.35109" lon="4.01617">
        <ele>526.328</ele>
        <time>2017-01-24T19:57:43Z</time>
      </trkpt>
      <trkpt lat="44.35097" lon="4.015">
        <ele>524.098</ele>
        <time>2017-01-24T19:58:03Z</time>
      </trkpt>
      <trkpt lat="44.35002" lon="4.00999">
        <ele>510.192</ele>
        <time>2017-01-24T19:58:23Z</time>
      </trkpt>
      <trkpt lat="44.34972" lon="4.00948">
        <ele>510.673</ele>
        <time>2017-01-24T19:58:43Z</time>
      </trkpt>
      <trkpt lat="44.34945" lon="4.00875">
        <ele>513.55</ele>
        <time>2017-01-24T19:59:03Z</time>
      </trkpt>
      <trkpt lat="44.34906" lon="4.00798">
        <ele>509.453</ele>
        <time>2017-01-24T19:59:23Z</time>
      </trkpt>
      <trkpt lat="44.34918" lon="4.00615">
        <ele>503.404</ele>
        <time>2017-01-24T19:59:43Z</time>
      </trkpt>
      <trkpt lat="44.34967" lon="4.00503">
        <ele>497.314</ele>
        <time>2017-01-24T20:00:03Z</time>
      </trkpt>
      <trkpt lat="44.35011" lon="4.0035">
        <ele>484.708</ele>
        <time>2017-01-24T20:00:23Z</time>
      </trkpt>
      <trkpt lat="44.35032" lon="4.00243">
        <ele>475.12</ele>
        <time>2017-01-24T20:00:43Z</time>
      </trkpt>
      <trkpt lat="44.35108" lon="4.0003">
        <ele>456.051</ele>
        <time>2019-04-07T21:41:39Z</time>
      </trkpt>
      <trkpt lat="44.35173" lon="3.99994">
        <ele>444.648</ele>
        <time>2019-04-07T21:41:59Z</time>
      </trkpt>
      <trkpt lat="44.35202" lon="3.99958">
        <ele>431.452</ele>
        <time>2019-04-07T21:42:19Z</time>
      </trkpt>
      <trkpt lat="44.35244" lon="3.99926">
        <ele>418.482</ele>
        <time>2017-01-24T20:02:43Z</time>
      </trkpt>
      <trkpt lat="44.35275" lon="3.99912">
        <ele>404.976</ele>
        <time>2019-04-07T21:42:59Z</time>
      </trkpt>
      <trkpt lat="44.35302" lon="3.99864">
        <ele>391.537</ele>
        <time>2019-04-07T21:43:19Z</time>
      </trkpt>
      <trkpt lat="44.35322" lon="3.99855">
        <ele>383.054</ele>
        <time>2017-01-24T20:03:43Z</time>
      </trkpt>
      <trkpt lat="44.35338" lon="3.99828">
        <ele>378.469</ele>
        <time>2017-01-24T20:04:03Z</time>
      </trkpt>
      <trkpt lat="44.35389" lon="3.99804">
        <ele>370.104</ele>
        <time>2017-01-24T20:04:23Z</time>
      </trkpt>
      <trkpt lat="44.35414" lon="3.99762">
        <ele>366.124</ele>
        <time>2017-01-24T20:04:43Z</time>
      </trkpt>
      <trkpt lat="44.35435" lon="3.99745">
        <ele>362.008</ele>
        <time>2017-01-24T20:05:03Z</time>
      </trkpt>
      <trkpt lat="44.35441" lon="3.99717">
        <ele>360.221</ele>
        <time>2017-01-24T20:05:23Z</time>
      </trkpt>
      <trkpt lat="44.35548" lon="3.9965">
        <ele>337.582</ele>
        <time>2017-01-24T20:05:43Z</time>
      </trkpt>
      <trkpt lat="44.35589" lon="3.99638">
        <ele>333.159</ele>
        <time>2017-01-24T20:06:03Z</time>
      </trkpt>
      <trkpt lat="44.35599" lon="3.99623">
        <ele>331.663</ele>
        <time>2017-01-24T20:06:23Z</time>
      </trkpt>
      <trkpt lat="44.35617" lon="3.99613">
        <ele>330.483</ele>
        <time>2017-01-24T20:06:43Z</time>
      </trkpt>
      <trkpt lat="44.35624" lon="3.99586">
        <ele>329.267</ele>
        <time>2017-01-24T20:07:03Z</time>
      </trkpt>
      <trkpt lat="44.35625" lon="3.99585">
        <ele>329.168</ele>
        <time>2017-01-24T20:07:23Z</time>
      </trkpt>
      <trkpt lat="44.35638" lon="3.99585">
        <ele>328.175</ele>
        <time>2017-01-24T20:07:43Z</time>
      </trkpt>
      <trkpt lat="44.35707" lon="3.99649">
        <ele>327.094</ele>
        <time>2017-01-24T20:08:03Z</time>
      </trkpt>
      <trkpt lat="44.35731" lon="3.9966">
        <ele>337.257</ele>
        <time>2019-04-07T21:48:19Z</time>
      </trkpt>
      <trkpt lat="44.35745" lon="3.99593">
        <ele>340.722</ele>
        <time>2019-04-07T21:48:39Z</time>
      </trkpt>
      <trkpt lat="44.35691" lon="3.99423">
        <ele>335.408</ele>
        <time>2019-04-07T21:48:59Z</time>
      </trkpt>
      <trkpt lat="44.3569" lon="3.99352">
        <ele>341.094</ele>
        <time>2019-04-07T21:49:19Z</time>
      </trkpt>
      <trkpt lat="44.35649" lon="3.99238">
        <ele>349.315</ele>
        <time>2019-04-07T21:49:39Z</time>
      </trkpt>
      <trkpt lat="44.35649" lon="3.99187">
        <ele>357.992</ele>
        <time>2019-04-07T21:49:59Z</time>
      </trkpt>
      <trkpt lat="44.3562" lon="3.99096">
        <ele>368.646</ele>
        <time>2019-04-07T21:50:19Z</time>
      </trkpt>
      <trkpt lat="44.35552" lon="3.99028">
        <ele>375.046</ele>
        <time>2019-04-07T21:50:39Z</time>
      </trkpt>
      <trkpt lat="44.35522" lon="3.98941">
        <ele>389.58</ele>
        <time>2019-04-07T21:50:59Z</time>
      </trkpt>
      <trkpt lat="44.35435" lon="3.98877">
        <ele>399.491</ele>
        <time>2019-04-07T21:51:19Z</time>
      </trkpt>
      <trkpt lat="44.35408" lon="3.98804">
        <ele>406.088</ele>
        <time>2019-04-07T21:51:39Z</time>
      </trkpt>
      <trkpt lat="44.35444" lon="3.98694">
        <ele>421.075</ele>
        <time>2019-04-07T21:51:59Z</time>
      </trkpt>
      <trkpt lat="44.35416" lon="3.98621">
        <ele>430.728</ele>
        <time>2019-04-07T21:52:19Z</time>
      </trkpt>
      <trkpt lat="44.35384" lon="3.98491">
        <ele>452.22</ele>
        <time>2019-04-07T21:52:39Z</time>
      </trkpt>
      <trkpt lat="44.35415" lon="3.98505">
        <ele>452.408</ele>
        <time>2019-04-07T21:52:59Z</time>
      </trkpt>
      <trkpt lat="44.35474" lon="3.98507">
        <ele>456.442</ele>
        <time>2019-04-07T21:53:19Z</time>
      </trkpt>
      <trkpt lat="44.35511" lon="3.98561">
        <ele>453.843</ele>
        <time>2019-04-07T21:53:39Z</time>
      </trkpt>
      <trkpt lat="44.35539" lon="3.98572">
        <ele>455.76</ele>
        <time>2019-04-07T21:53:59Z</time>
      </trkpt>
      <trkpt lat="44.35561" lon="3.98536">
        <ele>463.184</ele>
        <time>2019-04-07T21:54:19Z</time>
      </trkpt>
      <trkpt lat="44.35576" lon="3.98522">
        <ele>466.194</ele>
        <time>2019-04-07T21:54:39Z</time>
      </trkpt>
      <trkpt lat="44.35587" lon="3.98486">
        <ele>471.078</ele>
        <time>2019-04-07T21:54:59Z</time>
      </trkpt>
      <trkpt lat="44.35605" lon="3.98464">
        <ele>473.229</ele>
        <time>2019-04-07T21:55:19Z</time>
      </trkpt>
      <trkpt lat="44.35702" lon="3.9853">
        <ele>479.816</ele>
        <time>2019-04-07T21:55:39Z</time>
      </trkpt>
      <trkpt lat="44.35754" lon="3.98537">
        <ele>487.193</ele>
        <time>2019-04-07T21:55:59Z</time>
      </trkpt>
      <trkpt lat="44.35795" lon="3.98593">
        <ele>483.365</ele>
        <time>2019-04-07T21:56:19Z</time>
      </trkpt>
      <trkpt lat="44.35901" lon="3.98647">
        <ele>498.921</ele>
        <time>2019-04-07T21:56:39Z</time>
      </trkpt>
      <trkpt lat="44.35941" lon="3.98636">
        <ele>504.808</ele>
        <time>2019-04-07T21:56:59Z</time>
      </trkpt>
      <trkpt lat="44.35962" lon="3.98586">
        <ele>504.334</ele>
        <time>2019-04-07T21:57:19Z</time>
      </trkpt>
      <trkpt lat="44.35945" lon="3.9853">
        <ele>517.465</ele>
        <time>2019-04-07T21:57:39Z</time>
      </trkpt>
      <trkpt lat="44.35944" lon="3.98429">
        <ele>542.852</ele>
        <time>2019-04-07T21:57:59Z</time>
      </trkpt>
      <trkpt lat="44.35882" lon="3.98358">
        <ele>540.456</ele>
        <time>2019-04-07T21:58:19Z</time>
      </trkpt>
      <trkpt lat="44.35878" lon="3.98353">
        <ele>540.236</ele>
        <time>2017-01-24T20:21:03Z</time>
      </trkpt>
      <trkpt lat="44.35847" lon="3.98297">
        <ele>539.18</ele>
        <time>2017-01-24T20:21:23Z</time>
      </trkpt>
      <trkpt lat="44.35829" lon="3.98284">
        <ele>536.871</ele>
        <time>2017-01-24T20:21:43Z</time>
      </trkpt>
      <trkpt lat="44.35772" lon="3.982">
        <ele>546.898</ele>
        <time>2017-01-24T20:22:03Z</time>
      </trkpt>
      <trkpt lat="44.35699" lon="3.98176">
        <ele>549.941</ele>
        <time>2017-01-24T20:22:23Z</time>
      </trkpt>
      <trkpt lat="44.35682" lon="3.98142">
        <ele>552.881</ele>
        <time>2017-01-24T20:22:43Z</time>
      </trkpt>
      <trkpt lat="44.35643" lon="3.98108">
        <ele>550.009</ele>
        <time>2017-01-24T20:23:03Z</time>
      </trkpt>
      <trkpt lat="44.35623" lon="3.98064">
        <ele>549.708</ele>
        <time>2017-01-24T20:23:23Z</time>
      </trkpt>
      <trkpt lat="44.35623" lon="3.98021">
        <ele>546.359</ele>
        <time>2017-01-24T20:23:43Z</time>
      </trkpt>
      <trkpt lat="44.35691" lon="3.97963">
        <ele>544.62</ele>
        <time>2017-01-24T20:24:03Z</time>
      </trkpt>
      <trkpt lat="44.35725" lon="3.97913">
        <ele>541.017</ele>
        <time>2017-01-24T20:24:23Z</time>
      </trkpt>
      <trkpt lat="44.35738" lon="3.97879">
        <ele>539.271</ele>
        <time>2017-01-24T20:24:43Z</time>
      </trkpt>
      <trkpt lat="44.35802" lon="3.97833">
        <ele>542.671</ele>
        <time>2017-01-24T20:25:03Z</time>
      </trkpt>
      <trkpt lat="44.35849" lon="3.97753">
        <ele>542.395</ele>
        <time>2017-01-24T20:25:23Z</time>
      </trkpt>
      <trkpt lat="44.35878" lon="3.97688">
        <ele>543.476</ele>
        <time>2017-01-24T20:25:43Z</time>
      </trkpt>
      <trkpt lat="44.35955" lon="3.97456">
        <ele>531.473</ele>
        <time>2017-01-24T20:26:03Z</time>
      </trkpt>
      <trkpt lat="44.35967" lon="3.97444">
        <ele>534.124</ele>
        <time>2017-01-24T20:26:23Z</time>
      </trkpt>
      <trkpt lat="44.35978" lon="3.97407">
        <ele>531.204</ele>
        <time>2017-01-24T20:26:43Z</time>
      </trkpt>
      <trkpt lat="44.36025" lon="3.97327">
        <ele>537.914</ele>
        <time>2017-01-24T20:27:03Z</time>
      </trkpt>
      <trkpt lat="44.35996" lon="3.97294">
        <ele>531.608</ele>
        <time>2017-01-24T20:27:23Z</time>
      </trkpt>
      <trkpt lat="44.35975" lon="3.97202">
        <ele>539.657</ele>
        <time>2017-01-24T20:27:43Z</time>
      </trkpt>
      <trkpt lat="44.35974" lon="3.97092">
        <ele>543.988</ele>
        <time>2017-01-24T20:28:03Z</time>
      </trkpt>
      <trkpt lat="44.35995" lon="3.96941">
        <ele>545.085</ele>
        <time>2017-01-24T20:28:23Z</time>
      </trkpt>
      <trkpt lat="44.35988" lon="3.96827">
        <ele>541.949</ele>
        <time>2017-01-24T20:28:43Z</time>
      </trkpt>
      <trkpt lat="44.35992" lon="3.96724">
        <ele>539.319</ele>
        <time>2017-01-24T20:29:03Z</time>
      </trkpt>
      <trkpt lat="44.36018" lon="3.96633">
        <ele>527.263</ele>
        <time>2017-01-24T20:29:23Z</time>
      </trkpt>
      <trkpt lat="44.36039" lon="3.96584">
        <ele>525.254</ele>
        <time>2017-01-24T20:29:43Z</time>
      </trkpt>
      <trkpt lat="44.36052" lon="3.96563">
        <ele>529.361</ele>
        <time>2019-04-07T22:07:39Z</time>
      </trkpt>
      <trkpt lat="44.36032" lon="3.96522">
        <ele>517.648</ele>
        <time>2019-04-07T22:07:59Z</time>
      </trkpt>
      <trkpt lat="44.36033" lon="3.9646">
        <ele>513.861</ele>
        <time>2019-04-07T22:08:19Z</time>
      </trkpt>
      <trkpt lat="44.36021" lon="3.96441">
        <ele>507.017</ele>
        <time>2019-04-07T22:08:39Z</time>
      </trkpt>
      <trkpt lat="44.36028" lon="3.96374">
        <ele>509.008</ele>
        <time>2017-01-24T20:31:03Z</time>
      </trkpt>
      <trkpt lat="44.36007" lon="3.96398">
        <ele>501.449</ele>
        <time>2017-01-24T20:31:23Z</time>
      </trkpt>
      <trkpt lat="44.36007" lon="3.96389">
        <ele>501.03</ele>
        <time>2017-01-24T20:31:43Z</time>
      </trkpt>
      <trkpt lat="44.36031" lon="3.96339">
        <ele>504.627</ele>
        <time>2017-01-24T20:32:03Z</time>
      </trkpt>
      <trkpt lat="44.36015" lon="3.96264">
        <ele>488.691</ele>
        <time>2017-01-24T20:32:23Z</time>
      </trkpt>
      <trkpt lat="44.36027" lon="3.96203">
        <ele>484.971</ele>
        <time>2017-01-24T20:32:43Z</time>
      </trkpt>
      <trkpt lat="44.36051" lon="3.9613">
        <ele>492.965</ele>
        <time>2017-01-24T20:33:03Z</time>
      </trkpt>
      <trkpt lat="44.36034" lon="3.96081">
        <ele>482.316</ele>
        <time>2017-01-24T20:33:23Z</time>
      </trkpt>
      <trkpt lat="44.36036" lon="3.96035">
        <ele>481.133</ele>
        <time>2017-01-24T20:33:43Z</time>
      </trkpt>
      <trkpt lat="44.36051" lon="3.95984">
        <ele>481.022</ele>
        <time>2017-01-24T20:34:03Z</time>
      </trkpt>
      <trkpt lat="44.36057" lon="3.95933">
        <ele>473.062</ele>
        <time>2017-01-24T20:34:23Z</time>
      </trkpt>
      <trkpt lat="44.3608" lon="3.95903">
        <ele>474.108</ele>
        <time>2017-01-24T20:34:43Z</time>
      </trkpt>
      <trkpt lat="44.36103" lon="3.95888">
        <ele>477.708</ele>
        <time>2017-01-24T20:35:03Z</time>
      </trkpt>
      <trkpt lat="44.36103" lon="3.9588">
        <ele>478.727</ele>
        <time>2017-01-24T20:35:23Z</time>
      </trkpt>
      <trkpt lat="44.36068" lon="3.95839">
        <ele>476.318</ele>
        <time>2017-01-24T20:35:43Z</time>
      </trkpt>
      <trkpt lat="44.36046" lon="3.95827">
        <ele>472.665</ele>
        <time>2017-01-24T20:36:03Z</time>
      </trkpt>
      <trkpt lat="44.36039" lon="3.95803">
        <ele>472.969</ele>
        <time>2017-01-24T20:36:23Z</time>
      </trkpt>
      <trkpt lat="44.36021" lon="3.9578">
        <ele>475.049</ele>
        <time>2017-01-24T20:36:43Z</time>
      </trkpt>
      <trkpt lat="44.36005" lon="3.95791">
        <ele>474.773</ele>
        <time>2017-01-24T20:37:03Z</time>
      </trkpt>
      <trkpt lat="44.35967" lon="3.95905">
        <ele>472.034</ele>
        <time>2017-01-24T20:37:23Z</time>
      </trkpt>
      <trkpt lat="44.35915" lon="3.95946">
        <ele>473.061</ele>
        <time>2017-01-24T20:37:43Z</time>
      </trkpt>
      <trkpt lat="44.35928" lon="3.95984">
        <ele>465.893</ele>
        <time>2017-01-24T20:38:03Z</time>
      </trkpt>
      <trkpt lat="44.35912" lon="3.96039">
        <ele>471.065</ele>
        <time>2017-01-24T20:38:23Z</time>
      </trkpt>
      <trkpt lat="44.35905" lon="3.96116">
        <ele>469.621</ele>
        <time>2017-01-24T20:38:43Z</time>
      </trkpt>
      <trkpt lat="44.35891" lon="3.96163">
        <ele>474.908</ele>
        <time>2017-01-24T20:39:03Z</time>
      </trkpt>
      <trkpt lat="44.35872" lon="3.96125">
        <ele>486.664</ele>
        <time>2017-01-24T20:39:23Z</time>
      </trkpt>
      <trkpt lat="44.35844" lon="3.96093">
        <ele>502.795</ele>
        <time>2017-01-24T20:39:43Z</time>
      </trkpt>
      <trkpt lat="44.3583" lon="3.96028">
        <ele>507.742</ele>
        <time>2017-01-24T20:40:03Z</time>
      </trkpt>
      <trkpt lat="44.35789" lon="3.95983">
        <ele>517.956</ele>
        <time>2017-01-24T20:40:23Z</time>
      </trkpt>
      <trkpt lat="44.35738" lon="3.9594">
        <ele>526.096</ele>
        <time>2017-01-24T20:40:43Z</time>
      </trkpt>
      <trkpt lat="44.35725" lon="3.95898">
        <ele>526.38</ele>
        <time>2017-01-24T20:41:03Z</time>
      </trkpt>
      <trkpt lat="44.3568" lon="3.95859">
        <ele>535.291</ele>
        <time>2017-01-24T20:41:23Z</time>
      </trkpt>
      <trkpt lat="44.35645" lon="3.95838">
        <ele>538.958</ele>
        <time>2017-01-24T20:41:43Z</time>
      </trkpt>
      <trkpt lat="44.35646" lon="3.95755">
        <ele>539.555</ele>
        <time>2017-01-24T20:42:03Z</time>
      </trkpt>
      <trkpt lat="44.35656" lon="3.95718">
        <ele>540.707</ele>
        <time>2017-01-24T20:42:23Z</time>
      </trkpt>
      <trkpt lat="44.35625" lon="3.95629">
        <ele>546.517</ele>
        <time>2017-01-24T20:42:43Z</time>
      </trkpt>
      <trkpt lat="44.35583" lon="3.9562">
        <ele>541.808</ele>
        <time>2017-01-24T20:43:03Z</time>
      </trkpt>
      <trkpt lat="44.35543" lon="3.95597">
        <ele>545.04</ele>
        <time>2017-01-24T20:43:23Z</time>
      </trkpt>
      <trkpt lat="44.35477" lon="3.95581">
        <ele>537.411</ele>
        <time>2017-01-24T20:43:43Z</time>
      </trkpt>
      <trkpt lat="44.35466" lon="3.9556">
        <ele>534.068</ele>
        <time>2017-01-24T20:44:03Z</time>
      </trkpt>
      <trkpt lat="44.35483" lon="3.95491">
        <ele>534.872</ele>
        <time>2017-01-24T20:44:23Z</time>
      </trkpt>
      <trkpt lat="44.35511" lon="3.95417">
        <ele>547.422</ele>
        <time>2017-01-24T20:44:43Z</time>
      </trkpt>
      <trkpt lat="44.35471" lon="3.95393">
        <ele>535.746</ele>
        <time>2017-01-24T20:45:03Z</time>
      </trkpt>
      <trkpt lat="44.35462" lon="3.95355">
        <ele>544.327</ele>
        <time>2017-01-24T20:45:23Z</time>
      </trkpt>
      <trkpt lat="44.354" lon="3.95351">
        <ele>542.194</ele>
        <time>2017-01-24T20:45:43Z</time>
      </trkpt>
      <trkpt lat="44.35351" lon="3.95355">
        <ele>544.692</ele>
        <time>2017-01-24T20:46:03Z</time>
      </trkpt>
      <trkpt lat="44.35319" lon="3.95342">
        <ele>550.473</ele>
        <time>2017-01-24T20:46:23Z</time>
      </trkpt>
      <trkpt lat="44.35264" lon="3.95351">
        <ele>545.32</ele>
        <time>2017-01-24T20:46:43Z</time>
      </trkpt>
      <trkpt lat="44.35232" lon="3.95311">
        <ele>542.108</ele>
        <time>2017-01-24T20:47:03Z</time>
      </trkpt>
      <trkpt lat="44.35186" lon="3.95354">
        <ele>542.054</ele>
        <time>2017-01-24T20:47:23Z</time>
      </trkpt>
      <trkpt lat="44.35114" lon="3.95369">
        <ele>538.535</ele>
        <time>2017-01-24T20:47:43Z</time>
      </trkpt>
      <trkpt lat="44.35133" lon="3.9528">
        <ele>525.162</ele>
        <time>2017-01-24T20:48:03Z</time>
      </trkpt>
      <trkpt lat="44.3514" lon="3.95198">
        <ele>517.646</ele>
        <time>2017-01-24T20:48:23Z</time>
      </trkpt>
      <trkpt lat="44.35152" lon="3.95156">
        <ele>515.936</ele>
        <time>2017-01-24T20:48:43Z</time>
      </trkpt>
      <trkpt lat="44.35141" lon="3.95083">
        <ele>503.61</ele>
        <time>2017-01-24T20:49:03Z</time>
      </trkpt>
      <trkpt lat="44.3516" lon="3.95046">
        <ele>502.851</ele>
        <time>2017-01-24T20:49:23Z</time>
      </trkpt>
      <trkpt lat="44.35151" lon="3.94991">
        <ele>495.418</ele>
        <time>2017-01-24T20:49:43Z</time>
      </trkpt>
      <trkpt lat="44.35129" lon="3.94968">
        <ele>494.589</ele>
        <time>2017-01-24T20:50:03Z</time>
      </trkpt>
      <trkpt lat="44.35107" lon="3.94962">
        <ele>495.706</ele>
        <time>2017-01-24T20:50:23Z</time>
      </trkpt>
      <trkpt lat="44.35093" lon="3.94972">
        <ele>496.326</ele>
        <time>2017-01-24T20:50:43Z</time>
      </trkpt>
      <trkpt lat="44.35085" lon="3.94959">
        <ele>497.808</ele>
        <time>2017-01-24T20:51:03Z</time>
      </trkpt>
      <trkpt lat="44.35048" lon="3.94961">
        <ele>498.183</ele>
        <time>2017-01-24T20:51:23Z</time>
      </trkpt>
      <trkpt lat="44.35044" lon="3.9494">
        <ele>499.714</ele>
        <time>2017-01-24T20:51:43Z</time>
      </trkpt>
      <trkpt lat="44.35018" lon="3.94946">
        <ele>498.261</ele>
        <time>2017-01-24T20:52:03Z</time>
      </trkpt>
      <trkpt lat="44.34964" lon="3.94984">
        <ele>494.7</ele>
      </trkpt>
      <trkpt lat="44.34949" lon="3.94983">
        <ele>494.3</ele>
      </trkpt>
    </trkseg>
  </trk>
</gpx>